createdAt,value
2018-10-21T00:01:47.439Z,18.50
2018-10-21T00:04:16.839Z,10.00
2018-10-21T00:06:46.215Z,9.93
2018-10-21T00:09:15.763Z,10.17
2018-10-21T00:11:45.078Z,8.47
2018-10-21T00:14:14.508Z,17.07
2018-10-21T00:16:44.039Z,16.27
2018-10-21T00:19:13.408Z,10.80
2018-10-21T00:21:42.863Z,16.50
2018-10-21T00:24:12.447Z,12.53
2018-10-21T00:26:41.832Z,15.07
2018-10-21T00:29:11.496Z,24.77
2018-10-21T00:31:40.931Z,11.60
2018-10-21T00:34:10.315Z,11.63
2018-10-21T00:36:39.708Z,14.73
2018-10-21T00:39:12.040Z,13.33
2018-10-21T00:41:41.588Z,14.33
2018-10-21T00:44:11.132Z,10.17
2018-10-21T00:46:40.543Z,12.83
2018-10-21T00:49:10.481Z,14.23
2018-10-21T00:51:40.055Z,12.40
2018-10-21T00:54:14.844Z,31.73
2018-10-21T00:56:46.167Z,14.03
2018-10-21T00:59:15.552Z,16.70
2018-10-21T01:01:44.925Z,18.03
2018-10-21T01:04:14.383Z,8.73
2018-10-21T01:06:43.984Z,12.87
2018-10-21T01:09:14.225Z,10.30
2018-10-21T01:11:43.819Z,12.57
2018-10-21T01:14:13.211Z,9.67
2018-10-21T01:16:42.583Z,11.83
2018-10-21T01:19:11.946Z,11.57
2018-10-21T01:21:41.389Z,12.47
2018-10-21T01:24:10.983Z,23.67
2018-10-21T01:26:40.399Z,21.53
2018-10-21T01:29:09.794Z,10.30
2018-10-21T01:31:39.284Z,16.13
2018-10-21T01:34:08.655Z,15.27
2018-10-21T01:36:38.228Z,16.00
2018-10-21T01:39:10.549Z,12.23
2018-10-21T01:41:39.984Z,21.90
2018-10-21T01:44:09.366Z,16.67
2018-10-21T01:46:38.752Z,12.37
2018-10-21T01:49:08.199Z,19.53
2018-10-21T01:51:37.577Z,18.10
2018-10-21T01:54:07.016Z,16.10
2018-10-21T01:56:36.420Z,17.60
2018-10-21T01:59:06.256Z,19.10
2018-10-21T02:01:35.660Z,13.37
2018-10-21T02:04:05.432Z,13.80
2018-10-21T02:06:34.816Z,15.60
2018-10-21T02:09:05.263Z,19.80
2018-10-21T02:11:34.723Z,19.90
2018-10-21T02:14:04.115Z,17.77
2018-10-21T02:16:33.479Z,17.43
2018-10-21T02:19:02.847Z,18.30
2018-10-21T02:21:32.271Z,22.00
2018-10-21T02:24:01.668Z,17.03
2018-10-21T02:26:31.181Z,23.20
2018-10-21T02:29:00.579Z,15.97
2018-10-21T02:31:29.984Z,21.83
2018-10-21T02:33:59.413Z,15.50
2018-10-21T02:36:28.804Z,20.27
2018-10-21T02:38:58.235Z,19.50
2018-10-21T02:42:04.449Z,25.20
2018-10-21T02:44:33.829Z,21.03
2018-10-21T02:47:03.239Z,11.30
2018-10-21T02:49:32.623Z,19.57
2018-10-21T02:52:07.248Z,17.40
2018-10-21T02:54:37.352Z,23.20
2018-10-21T02:57:10.228Z,24.77
2018-10-21T02:59:39.758Z,15.03
2018-10-21T03:02:09.168Z,17.77
2018-10-21T03:04:38.619Z,16.63
2018-10-21T03:07:08.027Z,13.00
2018-10-21T03:09:37.412Z,33.60
2018-10-21T03:12:06.952Z,22.20
2018-10-21T03:14:36.341Z,23.10
2018-10-21T03:17:05.761Z,14.83
2018-10-21T03:19:35.155Z,16.03
2018-10-21T03:22:04.562Z,13.90
2018-10-21T03:24:33.974Z,15.90
2018-10-21T03:27:03.402Z,22.30
2018-10-21T03:29:32.845Z,22.63
2018-10-21T03:32:02.239Z,20.00
2018-10-21T03:34:31.617Z,35.67
2018-10-21T03:37:01.014Z,14.93
2018-10-21T03:39:30.431Z,19.53
2018-10-21T03:41:59.828Z,20.33
2018-10-21T03:44:29.268Z,15.80
2018-10-21T03:46:58.681Z,23.77
2018-10-21T03:49:28.084Z,23.90
2018-10-21T03:51:57.540Z,35.37
2018-10-21T03:54:26.879Z,19.90
2018-10-21T03:56:56.261Z,24.93
2018-10-21T03:59:25.684Z,39.67
2018-10-21T04:01:55.098Z,20.93
2018-10-21T04:04:24.483Z,23.43
2018-10-21T04:06:53.882Z,24.93
2018-10-21T04:09:23.271Z,17.90
2018-10-21T04:11:52.671Z,26.73
2018-10-21T04:14:22.084Z,23.70
2018-10-21T04:16:51.484Z,18.90
2018-10-21T04:19:20.884Z,30.20
2018-10-21T04:21:56.617Z,28.63
2018-10-21T04:24:25.967Z,22.10
2018-10-21T04:26:55.360Z,26.57
2018-10-21T04:29:24.818Z,16.77
2018-10-21T04:31:54.269Z,36.53
2018-10-21T04:34:23.670Z,23.10
2018-10-21T04:37:02.635Z,32.93
2018-10-21T04:40:36.658Z,44.27
2018-10-21T04:43:06.075Z,28.57
2018-10-21T04:45:35.480Z,23.63
2018-10-21T04:48:05.027Z,25.77
2018-10-21T04:50:34.430Z,31.70
2018-10-21T04:53:03.821Z,30.77
2018-10-21T04:55:33.543Z,28.97
2018-10-21T04:58:02.963Z,28.10
2018-10-21T05:00:32.406Z,22.67
2018-10-21T05:03:01.815Z,22.20
2018-10-21T05:05:31.232Z,21.83
2018-10-21T05:08:00.621Z,27.43
2018-10-21T05:10:31.355Z,25.73
2018-10-21T05:13:00.790Z,33.67
2018-10-21T05:15:31.354Z,29.67
2018-10-21T05:18:00.775Z,23.83
2018-10-21T05:20:30.172Z,26.23
2018-10-21T05:22:59.592Z,32.97
2018-10-21T05:25:28.990Z,25.67
2018-10-21T05:27:58.427Z,23.77
2018-10-21T05:30:27.869Z,27.30
2018-10-21T05:32:57.246Z,29.20
2018-10-21T05:35:26.676Z,27.80
2018-10-21T05:37:56.133Z,26.40
2018-10-21T05:40:25.464Z,25.00
2018-10-21T05:42:54.835Z,25.40
2018-10-21T05:45:24.251Z,24.07
2018-10-21T05:47:53.668Z,22.87
2018-10-21T05:50:23.059Z,23.73
2018-10-21T05:52:52.476Z,28.37
2018-10-21T05:55:21.879Z,30.53
2018-10-21T05:57:51.388Z,26.80
2018-10-21T06:00:21.051Z,25.50
2018-10-21T06:02:50.565Z,28.20
2018-10-21T06:05:38.287Z,22.13
2018-10-21T06:08:07.856Z,27.27
2018-10-21T06:10:37.259Z,21.60
2018-10-21T06:13:07.088Z,19.30
2018-10-21T06:15:36.539Z,24.80
2018-10-21T06:18:07.969Z,32.57
2018-10-21T06:20:40.139Z,27.80
2018-10-21T06:23:09.541Z,26.13
2018-10-21T06:25:38.943Z,19.93
2018-10-21T06:28:08.503Z,22.00
2018-10-21T06:30:37.996Z,17.87
2018-10-21T06:33:07.461Z,16.43
2018-10-21T06:35:36.868Z,13.23
2018-10-21T06:38:06.815Z,12.77
2018-10-21T06:40:36.253Z,13.60
2018-10-21T06:43:05.907Z,13.60
2018-10-21T06:45:35.389Z,16.43
2018-10-21T06:48:04.866Z,22.40
2018-10-21T06:50:34.302Z,17.17
2018-10-21T06:53:03.801Z,19.10
2018-10-21T06:55:33.272Z,17.27
2018-10-21T06:58:02.681Z,14.43
2018-10-21T07:00:32.075Z,18.20
2018-10-21T07:03:01.473Z,10.33
2018-10-21T07:06:17.430Z,15.10
2018-10-21T07:08:47.344Z,13.27
2018-10-21T07:11:16.771Z,12.47
2018-10-21T07:13:46.165Z,16.63
2018-10-21T07:16:15.882Z,25.63
2018-10-21T07:18:46.213Z,19.30
2018-10-21T07:21:15.863Z,10.07
2018-10-21T07:23:45.601Z,15.03
2018-10-21T07:26:15.012Z,16.10
2018-10-21T07:28:44.431Z,18.40
2018-10-21T07:31:13.847Z,9.83
2018-10-21T07:33:43.272Z,16.37
2018-10-21T07:36:12.683Z,10.83
2018-10-21T07:38:42.043Z,13.20
2018-10-21T07:41:11.429Z,14.93
2018-10-21T07:43:40.836Z,17.53
2018-10-21T07:46:10.313Z,13.83
2018-10-21T07:48:39.640Z,13.93
2018-10-21T07:51:09.041Z,11.47
2018-10-21T07:53:38.466Z,15.17
2018-10-21T07:56:07.887Z,15.67
2018-10-21T07:58:37.405Z,14.50
2018-10-21T08:01:06.913Z,11.23
2018-10-21T08:03:36.284Z,15.63
2018-10-21T08:06:33.295Z,22.10
2018-10-21T08:09:02.879Z,16.53
2018-10-21T08:11:32.335Z,14.57
2018-10-21T08:14:01.749Z,25.27
2018-10-21T08:16:31.188Z,21.57
2018-10-21T08:19:00.639Z,14.63
2018-10-21T08:21:30.036Z,16.30
2018-10-21T08:23:59.445Z,17.07
2018-10-21T08:26:28.888Z,14.40
2018-10-21T08:28:58.327Z,24.50
2018-10-21T08:31:27.720Z,9.60
2018-10-21T08:33:57.246Z,15.73
2018-10-21T08:36:26.672Z,11.57
2018-10-21T08:38:56.048Z,19.07
2018-10-21T08:41:25.472Z,15.17
2018-10-21T08:43:54.859Z,15.03
2018-10-21T08:46:24.335Z,11.60
2018-10-21T08:48:53.699Z,20.20
2018-10-21T08:51:23.079Z,11.23
2018-10-21T08:53:52.471Z,14.60
2018-10-21T08:56:21.909Z,15.70
2018-10-21T08:58:51.328Z,18.07
2018-10-21T09:01:20.947Z,11.77
2018-10-21T09:03:50.711Z,12.67
2018-10-21T09:06:20.139Z,16.63
2018-10-21T09:08:49.536Z,11.67
2018-10-21T09:11:18.932Z,16.97
2018-10-21T09:13:48.324Z,8.00
2018-10-21T09:16:17.889Z,10.28
2018-10-21T09:18:47.379Z,11.25
2018-10-21T09:21:16.903Z,11.27
2018-10-21T09:23:46.503Z,15.50
2018-10-21T09:26:15.865Z,7.40
2018-10-21T09:28:46.147Z,13.53
2018-10-21T09:31:15.640Z,10.70
2018-10-21T09:33:44.960Z,7.90
2018-10-21T09:36:14.393Z,11.93
2018-10-21T09:38:43.859Z,11.23
2018-10-21T09:41:13.294Z,10.73
2018-10-21T09:43:42.755Z,7.43
2018-10-21T09:46:12.317Z,7.73
2018-10-21T09:48:41.640Z,7.73
2018-10-21T09:51:11.057Z,6.30
2018-10-21T09:53:40.639Z,13.37
2018-10-21T09:56:10.129Z,11.83
2018-10-21T09:58:39.771Z,14.23
2018-10-21T10:01:14.290Z,11.67
2018-10-21T10:03:43.835Z,9.73
2018-10-21T10:06:13.186Z,8.90
2018-10-21T10:08:42.757Z,13.47
2018-10-21T10:11:12.296Z,8.47
2018-10-21T10:13:41.725Z,6.00
2018-10-21T10:16:11.253Z,11.20
2018-10-21T10:18:40.818Z,12.20
2018-10-21T10:21:10.240Z,9.93
2018-10-21T10:23:39.808Z,9.80
2018-10-21T10:26:09.197Z,6.77
2018-10-21T10:28:38.640Z,13.20
2018-10-21T10:31:08.149Z,6.40
2018-10-21T10:33:37.538Z,14.50
2018-10-21T10:36:07.798Z,17.17
2018-10-21T10:38:37.157Z,10.30
2018-10-21T10:41:07.082Z,5.63
2018-10-21T10:43:36.581Z,8.43
2018-10-21T10:46:06.175Z,12.80
2018-10-21T10:48:35.581Z,5.40
2018-10-21T10:51:05.218Z,8.10
2018-10-21T10:53:34.680Z,11.63
2018-10-21T10:56:04.083Z,7.27
2018-10-21T10:58:33.513Z,8.57
2018-10-21T11:01:03.030Z,8.63
2018-10-21T11:03:32.376Z,7.23
2018-10-21T11:06:01.803Z,11.17
2018-10-21T11:08:31.364Z,14.90
2018-10-21T11:11:00.840Z,9.03
2018-10-21T11:13:30.367Z,8.37
2018-10-21T11:15:59.815Z,7.70
2018-10-21T11:18:29.230Z,11.43
2018-10-21T11:20:58.656Z,9.13
2018-10-21T11:23:28.439Z,4.17
2018-10-21T11:25:57.869Z,16.27
2018-10-21T11:28:27.376Z,9.70
2018-10-21T11:30:56.864Z,6.17
2018-10-21T11:33:26.284Z,4.13
2018-10-21T11:35:55.948Z,6.13
2018-10-21T11:38:25.556Z,14.27
2018-10-21T11:40:54.965Z,11.03
2018-10-21T11:43:24.403Z,12.07
2018-10-21T11:45:54.052Z,6.33
2018-10-21T11:48:23.446Z,8.83
2018-10-21T11:50:52.922Z,10.80
2018-10-21T11:53:22.740Z,11.00
2018-10-21T11:55:52.342Z,6.70
2018-10-21T11:58:21.846Z,13.23
2018-10-21T12:00:51.612Z,8.43
2018-10-21T12:03:21.128Z,11.37
2018-10-21T12:05:50.615Z,4.27
2018-10-21T12:08:20.023Z,6.83
2018-10-21T12:10:49.477Z,4.27
2018-10-21T12:13:18.909Z,10.20
2018-10-21T12:15:48.408Z,7.43
2018-10-21T12:18:17.908Z,6.20
2018-10-21T12:20:47.429Z,10.00
2018-10-21T12:23:16.964Z,8.30
2018-10-21T12:25:46.545Z,11.70
2018-10-21T12:28:16.089Z,9.00
2018-10-21T12:30:45.472Z,4.60
2018-10-21T12:33:15.068Z,13.43
2018-10-21T12:35:44.640Z,4.80
2018-10-21T12:38:14.116Z,5.60
2018-10-21T12:40:43.634Z,4.83
2018-10-21T12:43:13.198Z,7.30
2018-10-21T12:45:42.610Z,8.83
2018-10-21T12:48:12.137Z,10.87
2018-10-21T12:50:41.554Z,11.00
2018-10-21T12:53:11.083Z,9.50
2018-10-21T12:55:45.741Z,7.90
2018-10-21T12:58:15.288Z,5.10
2018-10-21T13:00:45.867Z,6.63
2018-10-21T13:03:15.368Z,8.30
2018-10-21T13:05:44.993Z,4.53
2018-10-21T13:08:14.468Z,5.43
2018-10-21T13:10:44.064Z,7.37
2018-10-21T13:13:13.594Z,13.23
2018-10-21T13:15:43.038Z,10.00
2018-10-21T13:18:12.540Z,3.47
2018-10-21T13:20:41.986Z,12.00
2018-10-21T13:23:11.428Z,5.53
2018-10-21T13:25:40.924Z,7.93
2018-10-21T13:28:10.529Z,4.00
2018-10-21T13:30:39.911Z,15.97
2018-10-21T13:33:09.545Z,13.83
2018-10-21T13:35:39.062Z,12.50
2018-10-21T13:38:08.529Z,7.50
2018-10-21T13:40:38.049Z,8.37
2018-10-21T13:43:07.729Z,6.33
2018-10-21T13:45:37.234Z,7.63
2018-10-21T13:48:06.901Z,6.17
2018-10-21T13:50:36.346Z,8.77
2018-10-21T13:53:06.188Z,14.80
2018-10-21T13:55:35.536Z,7.87
2018-10-21T13:58:05.421Z,5.43
2018-10-21T14:00:35.046Z,12.57
2018-10-21T14:03:04.489Z,10.80
2018-10-21T14:05:34.057Z,9.80
2018-10-21T14:08:03.534Z,9.80
2018-10-21T14:10:33.663Z,12.60
2018-10-21T14:13:03.202Z,8.43
2018-10-21T14:15:32.672Z,25.63
2018-10-21T14:18:02.196Z,8.47
2018-10-21T14:20:31.853Z,6.20
2018-10-21T14:23:01.315Z,7.20
2018-10-21T14:25:31.338Z,6.10
2018-10-21T14:28:00.780Z,6.53
2018-10-21T14:30:30.506Z,6.53
2018-10-21T14:32:59.943Z,5.00
2018-10-21T14:35:29.448Z,7.63
2018-10-21T14:37:58.965Z,4.73
2018-10-21T14:40:28.362Z,8.77
2018-10-21T14:42:57.775Z,9.63
2018-10-21T14:45:27.301Z,6.20
2018-10-21T14:47:56.791Z,4.80
2018-10-21T14:50:26.220Z,12.00
2018-10-21T14:52:55.680Z,7.87
2018-10-21T14:55:25.137Z,9.03
2018-10-21T14:57:54.585Z,5.53
2018-10-21T15:00:24.152Z,9.30
2018-10-21T15:02:53.518Z,13.90
2018-10-21T15:05:22.933Z,10.53
2018-10-21T15:07:52.428Z,12.00
2018-10-21T15:10:22.006Z,5.67
2018-10-21T15:12:51.511Z,13.30
2018-10-21T15:15:20.951Z,5.27
2018-10-21T15:17:50.363Z,7.73
2018-10-21T15:20:19.824Z,13.83
2018-10-21T15:22:49.318Z,6.23
2018-10-21T15:25:18.721Z,11.40
2018-10-21T15:27:48.146Z,24.57
2018-10-21T15:30:17.907Z,5.97
2018-10-21T15:32:47.291Z,7.93
2018-10-21T15:35:16.751Z,7.20
2018-10-21T15:37:46.169Z,5.37
2018-10-21T15:40:15.795Z,5.53
2018-10-21T15:42:45.219Z,22.20
2018-10-21T15:45:14.622Z,8.53
2018-10-21T15:47:44.063Z,5.07
2018-10-21T15:50:13.500Z,4.83
2018-10-21T15:52:42.876Z,15.60
2018-10-21T15:55:12.326Z,19.53
2018-10-21T15:57:41.729Z,16.60
2018-10-21T16:00:12.465Z,3.93
2018-10-21T16:02:42.353Z,9.80
2018-10-21T16:05:12.353Z,11.33
2018-10-21T16:07:41.791Z,17.20
2018-10-21T16:10:11.290Z,10.13
2018-10-21T16:12:40.884Z,9.03
2018-10-21T16:15:13.845Z,6.90
2018-10-21T16:17:43.870Z,11.07
2018-10-21T16:20:13.336Z,12.97
2018-10-21T16:22:43.712Z,8.50
2018-10-21T16:25:14.445Z,9.30
2018-10-21T16:27:43.970Z,12.80
2018-10-21T16:30:14.735Z,16.87
2018-10-21T16:32:44.835Z,12.53
2018-10-21T16:35:14.437Z,9.10
2018-10-21T16:37:43.808Z,7.53
2018-10-21T16:40:14.618Z,12.90
2018-10-21T16:42:44.067Z,11.43
2018-10-21T16:45:14.566Z,5.63
2018-10-21T16:47:43.929Z,11.33
2018-10-21T16:50:15.554Z,13.57
2018-10-21T16:52:45.909Z,17.13
2018-10-21T16:55:15.983Z,5.97
2018-10-21T16:57:45.400Z,12.10
2018-10-21T17:00:16.256Z,14.07
2018-10-21T17:02:45.699Z,12.20
2018-10-21T17:05:15.278Z,8.20
2018-10-21T17:07:44.595Z,10.27
2018-10-21T17:10:14.608Z,10.37
2018-10-21T17:12:43.628Z,10.53
2018-10-21T17:15:13.047Z,26.63
2018-10-21T17:17:43.112Z,15.77
2018-10-21T17:20:14.570Z,13.60
2018-10-21T17:22:44.306Z,15.10
2018-10-21T17:25:14.244Z,12.53
2018-10-21T17:27:44.172Z,11.40
2018-10-21T17:30:15.928Z,26.30
2018-10-21T17:32:46.061Z,20.07
2018-10-21T17:35:16.036Z,20.23
2018-10-21T17:37:46.083Z,28.53
2018-10-21T17:40:15.755Z,22.17
2018-10-21T17:42:45.156Z,36.37
2018-10-21T17:45:15.360Z,30.47
2018-10-21T17:47:44.942Z,27.93
2018-10-21T17:50:15.236Z,23.83
2018-10-21T17:52:45.030Z,20.57
2018-10-21T17:55:14.726Z,18.67
2018-10-21T17:57:44.192Z,21.67
2018-10-21T18:00:14.822Z,13.03
2018-10-21T18:02:44.272Z,16.43
2018-10-21T18:05:14.634Z,12.60
2018-10-21T18:07:44.231Z,41.85
2018-10-21T18:10:14.007Z,11.07
2018-10-21T18:12:43.405Z,9.93
2018-10-21T18:15:13.165Z,20.53
2018-10-21T18:17:43.081Z,25.63
2018-10-21T18:20:13.500Z,12.77
2018-10-21T18:22:43.080Z,16.27
2018-10-21T18:25:12.556Z,42.00
2018-10-21T18:27:42.312Z,19.90
2018-10-21T18:30:12.744Z,9.30
2018-10-21T18:32:42.563Z,21.67
2018-10-21T18:35:14.520Z,20.27
2018-10-21T18:37:44.107Z,9.33
2018-10-21T18:40:13.607Z,13.77
2018-10-21T18:42:43.074Z,7.60
2018-10-21T18:45:14.043Z,9.43
2018-10-21T18:47:44.204Z,10.30
2018-10-21T18:50:15.148Z,16.50
2018-10-21T18:52:44.710Z,14.70
2018-10-21T18:55:14.648Z,9.50
2018-10-21T18:57:43.847Z,11.43
2018-10-21T19:00:16.454Z,13.37
2018-10-21T19:02:45.914Z,10.63
2018-10-21T19:05:15.902Z,15.23
2018-10-21T19:07:45.393Z,6.83
2018-10-21T19:10:16.075Z,9.77
2018-10-21T19:12:45.400Z,7.87
2018-10-21T19:15:14.930Z,13.93
2018-10-21T19:17:44.359Z,29.10
2018-10-21T19:20:15.340Z,13.70
2018-10-21T19:22:44.826Z,13.00
2018-10-21T19:25:15.636Z,19.40
2018-10-21T19:27:45.707Z,22.77
2018-10-21T19:30:15.700Z,12.03
2018-10-21T19:32:45.135Z,21.77
2018-10-21T19:35:17.071Z,16.80
2018-10-21T19:37:46.458Z,10.00
2018-10-21T19:40:16.600Z,5.87
2018-10-21T19:42:46.115Z,10.60
2018-10-21T19:45:15.855Z,9.40
2018-10-21T19:47:45.297Z,12.87
2018-10-21T19:50:15.819Z,12.33
2018-10-21T19:52:45.573Z,13.27
2018-10-21T19:55:15.151Z,9.47
2018-10-21T19:57:44.582Z,13.40
2018-10-21T20:00:17.700Z,11.53
2018-10-21T20:02:47.291Z,13.03
2018-10-21T20:05:16.732Z,11.67
2018-10-21T20:07:46.252Z,9.13
2018-10-21T20:10:16.405Z,14.50
2018-10-21T20:12:45.638Z,6.30
2018-10-21T20:15:15.186Z,12.17
2018-10-21T20:17:44.624Z,9.33
2018-10-21T20:20:14.217Z,8.13
2018-10-21T20:22:43.653Z,11.60
2018-10-21T20:25:13.114Z,8.33
2018-10-21T20:27:42.565Z,7.67
2018-10-21T20:30:13.294Z,13.10
2018-10-21T20:32:43.209Z,15.30
2018-10-21T20:35:13.046Z,11.40
2018-10-21T20:37:42.460Z,9.97
2018-10-21T20:40:12.497Z,6.20
2018-10-21T20:42:41.785Z,16.30
2018-10-21T20:45:12.524Z,10.73
2018-10-21T20:47:41.927Z,6.17
2018-10-21T20:50:11.340Z,4.83
2018-10-21T20:52:40.761Z,6.57
2018-10-21T20:55:10.168Z,5.43
2018-10-21T20:57:39.597Z,6.57
2018-10-21T21:00:09.074Z,12.93
2018-10-21T21:02:38.459Z,5.17
2018-10-21T21:05:09.090Z,19.20
2018-10-21T21:07:38.536Z,5.70
2018-10-21T21:10:08.917Z,15.47
2018-10-21T21:12:38.300Z,5.97
2018-10-21T21:15:08.497Z,12.57
2018-10-21T21:17:37.936Z,5.87
2018-10-21T21:20:08.468Z,5.30
2018-10-21T21:22:37.861Z,9.63
2018-10-21T21:25:07.345Z,17.53
2018-10-21T21:27:36.737Z,12.93
2018-10-21T21:30:07.729Z,5.60
2018-10-21T21:32:37.135Z,7.70
2018-10-21T21:35:07.873Z,12.53
2018-10-21T21:37:37.606Z,6.13
2018-10-21T21:40:08.919Z,9.13
2018-10-21T21:42:38.836Z,12.67
2018-10-21T21:45:08.663Z,12.73
2018-10-21T21:47:38.264Z,7.73
2018-10-21T21:50:08.488Z,17.30
2018-10-21T21:52:38.012Z,16.53
2018-10-21T21:55:07.691Z,11.50
2018-10-21T21:57:37.202Z,11.80
2018-10-21T22:00:11.095Z,10.70
2018-10-21T22:02:40.453Z,6.83
2018-10-21T22:05:10.439Z,13.30
2018-10-21T22:07:40.767Z,13.60
2018-10-21T22:10:12.340Z,10.90
2018-10-21T22:12:42.516Z,12.63
2018-10-21T22:15:11.918Z,13.90
2018-10-21T22:17:41.927Z,11.33
2018-10-21T22:20:12.408Z,10.50
2018-10-21T22:22:42.079Z,7.80
2018-10-21T22:25:11.518Z,6.67
2018-10-21T22:27:40.943Z,8.23
2018-10-21T22:30:11.621Z,14.70
2018-10-21T22:32:40.945Z,7.63
2018-10-21T22:35:10.499Z,6.23
2018-10-21T22:37:39.907Z,13.70
2018-10-21T22:40:09.380Z,7.90
2018-10-21T22:42:38.731Z,11.33
2018-10-21T22:45:09.588Z,13.73
2018-10-21T22:47:39.248Z,9.90
2018-10-21T22:50:10.915Z,8.80
2018-10-21T22:52:40.639Z,9.07
2018-10-21T22:55:10.068Z,7.93
2018-10-21T22:57:39.475Z,7.43
2018-10-21T23:00:10.249Z,8.43
2018-10-21T23:02:39.636Z,14.03
2018-10-21T23:05:09.565Z,7.60
2018-10-21T23:07:39.519Z,13.40
2018-10-21T23:10:08.987Z,20.23
2018-10-21T23:12:38.442Z,10.53
2018-10-21T23:15:08.251Z,7.00
2018-10-21T23:17:38.473Z,11.43
2018-10-21T23:20:08.512Z,7.13
2018-10-21T23:22:38.003Z,9.40
2018-10-21T23:25:07.819Z,9.60
2018-10-21T23:27:37.248Z,7.43
2018-10-21T23:30:07.785Z,14.10
2018-10-21T23:32:37.136Z,11.27
2018-10-21T23:35:07.285Z,13.30
2018-10-21T23:37:36.777Z,7.20
2018-10-21T23:40:07.458Z,9.10
2018-10-21T23:42:36.779Z,11.23
2018-10-21T23:45:06.498Z,9.70
2018-10-21T23:47:35.910Z,10.90
2018-10-21T23:50:05.930Z,10.13
2018-10-21T23:52:35.453Z,13.97
2018-10-21T23:55:04.919Z,7.10
2018-10-21T23:57:34.291Z,10.83
